Time;durP1;ratioP1;P1;durP2;ratioP2;P2;SDS_P1;SDS_P2;PMS_P1;PMS_P2;Temp;Humidity;BMP_temperature;BMP_pressure;BME280_temperature;BME280_humidity;BME280_pressure;Samples;Min_cycle;Max_cycle;Signal;HPM_P1;HPM_P2
2023/02/09 00:00:53;;;;;;;28.97;12.53;;;;;;;-6.26;100.00;102697.81;4969256;28;20035;-77
2023/02/09 00:03:18;;;;;;;27.73;13.27;;;;;;;-6.28;100.00;102702.84;4970294;28;20039;-78
2023/02/09 00:05:44;;;;;;;24.77;12.20;;;;;;;-6.38;100.00;102704.38;4967744;28;20042;-77
2023/02/09 00:08:09;;;;;;;26.97;13.37;;;;;;;-6.37;100.00;102703.59;4970103;28;20030;-77
2023/02/09 00:10:37;;;;;;;28.93;13.27;;;;;;;-6.38;100.00;102699.22;4970445;28;20038;-77
2023/02/09 00:15:48;;;;;;;26.13;12.30;;;;;;;-6.40;100.00;102683.66;4968082;28;20113;-77
2023/02/09 00:18:13;;;;;;;25.67;12.67;;;;;;;-6.39;100.00;102690.63;4975484;28;20058;-77
2023/02/09 00:20:38;;;;;;;22.73;11.70;;;;;;;-6.40;100.00;102683.66;4975305;28;20070;-77
2023/02/09 00:23:04;;;;;;;25.80;12.20;;;;;;;-6.42;100.00;102682.59;4968327;28;20046;-78
2023/02/09 00:25:29;;;;;;;24.07;12.03;;;;;;;-6.45;100.00;102684.88;4972440;28;20045;-77
2023/02/09 00:27:54;;;;;;;27.07;11.90;;;;;;;-6.49;100.00;102680.22;4975914;28;20043;-77
2023/02/09 00:30:20;;;;;;;24.93;11.80;;;;;;;-6.52;100.00;102678.25;4959783;28;20045;-78
2023/02/09 00:32:45;;;;;;;27.57;12.33;;;;;;;-6.56;100.00;102671.00;4972564;28;20031;-78
2023/02/09 00:35:12;;;;;;;25.03;11.83;;;;;;;-6.63;100.00;102672.09;4969753;28;20070;-77
2023/02/09 00:37:38;;;;;;;27.60;12.07;;;;;;;-6.68;100.00;102670.72;4968198;28;20043;-78
2023/02/09 00:40:05;;;;;;;26.17;11.27;;;;;;;-6.71;100.00;102664.38;4972353;28;20039;-77
2023/02/09 00:42:30;;;;;;;26.93;11.30;;;;;;;-6.71;100.00;102666.94;4974546;28;20121;-77
2023/02/09 00:44:56;;;;;;;26.87;11.77;;;;;;;-6.72;100.00;102667.72;4967333;28;20256;-77
2023/02/09 00:47:21;;;;;;;27.10;11.50;;;;;;;-6.75;100.00;102665.75;4975919;28;20031;-77
2023/02/09 00:49:47;;;;;;;27.20;12.30;;;;;;;-6.77;100.00;102664.69;4953664;28;20042;-77
2023/02/09 00:52:12;;;;;;;25.77;12.47;;;;;;;-6.80;100.00;102656.69;4970932;28;20042;-77
2023/02/09 00:54:38;;;;;;;28.87;12.40;;;;;;;-6.81;100.00;102660.03;4970790;28;20502;-77
2023/02/09 00:57:04;;;;;;;23.33;10.70;;;;;;;-6.87;100.00;102649.13;4968136;28;20074;-78
2023/02/09 00:59:32;;;;;;;24.23;12.03;;;;;;;-6.91;100.00;102649.59;4968777;28;20174;-77
2023/02/09 01:01:57;;;;;;;26.97;13.10;;;;;;;-6.95;100.00;102642.34;4967256;28;20157;-77
2023/02/09 01:04:23;;;;;;;24.47;11.53;;;;;;;-7.00;100.00;102644.44;4946531;28;20122;-77
2023/02/09 01:06:48;;;;;;;25.97;11.97;;;;;;;-7.07;100.00;102642.06;4967293;28;20050;-77
2023/02/09 01:09:15;;;;;;;24.73;11.20;;;;;;;-7.14;100.00;102640.53;4969694;28;20035;-77
2023/02/09 01:11:40;;;;;;;26.43;11.80;;;;;;;-7.22;100.00;102644.00;4957710;28;20506;-77
2023/02/09 01:14:05;;;;;;;28.60;11.77;;;;;;;-7.20;100.00;102644.19;4948479;28;20508;-77
2023/02/09 01:16:31;;;;;;;24.40;11.67;;;;;;;-7.20;100.00;102652.78;4967422;28;20425;-77
2023/02/09 01:19:01;;;;;;;22.00;11.43;;;;;;;-7.23;100.00;102644.78;4956070;28;20031;-77
2023/02/09 01:21:29;;;;;;;25.30;11.80;;;;;;;-7.32;100.00;102643.84;4952160;28;20077;-77
2023/02/09 01:23:55;;;;;;;20.70;10.27;;;;;;;-7.36;100.00;102649.41;4947183;28;20544;-77
2023/02/09 01:26:21;;;;;;;23.10;10.37;;;;;;;-7.42;100.00;102638.56;4947210;28;20039;-77
2023/02/09 01:28:51;;;;;;;22.70;10.60;;;;;;;-7.39;100.00;102642.31;4965265;28;20038;-77
2023/02/09 01:31:21;;;;;;;22.43;9.40;;;;;;;-7.36;100.00;102644.28;4948917;28;20422;-77
2023/02/09 01:33:50;;;;;;;27.25;12.23;;;;;;;-7.31;100.00;102650.78;4962523;28;20042;-77
2023/02/09 01:36:15;;;;;;;21.97;11.10;;;;;;;-7.32;100.00;102654.13;4965256;28;20048;-77
2023/02/09 01:38:40;;;;;;;21.93;10.53;;;;;;;-7.33;100.00;102648.09;4966285;28;20113;-77
2023/02/09 01:41:07;;;;;;;22.63;11.70;;;;;;;-7.32;100.00;102643.84;4963610;28;20062;-77
2023/02/09 01:43:53;;;;;;;22.73;10.73;;;;;;;-7.29;100.00;102644.16;4970163;28;20469;-77
2023/02/09 01:46:20;;;;;;;24.50;9.73;;;;;;;-7.29;100.00;102641.59;4968355;28;20039;-77
2023/02/09 01:48:47;;;;;;;23.07;9.87;;;;;;;-7.33;100.00;102639.50;4969105;28;20046;-77
2023/02/09 01:51:13;;;;;;;17.90;8.93;;;;;;;-7.40;100.00;102635.41;4968104;28;20035;-77
2023/02/09 01:53:39;;;;;;;25.50;12.93;;;;;;;-7.43;100.00;102626.50;4971312;28;20521;-77
2023/02/09 01:56:14;;;;;;;27.43;11.60;;;;;;;-7.41;100.00;102622.41;4947399;28;20489;-77
2023/02/09 01:58:40;;;;;;;23.60;10.30;;;;;;;-7.46;100.00;102619.41;4953343;28;20034;-77
2023/02/09 02:01:05;;;;;;;25.73;11.23;;;;;;;-7.46;100.00;102616.84;4950682;28;20035;-77
2023/02/09 02:03:31;;;;;;;21.40;10.63;;;;;;;-7.45;100.00;102620.31;4967046;28;20053;-77
2023/02/09 02:06:03;;;;;;;20.40;10.70;;;;;;;-7.47;100.00;102629.50;4947725;28;20398;-77
2023/02/09 02:08:32;;;;;;;;;;;;;;;-7.59;100.00;102627.53;4966076;28;20034;-77
2023/02/09 02:10:57;;;;;;;24.37;10.47;;;;;;;-7.68;100.00;102625.69;4967442;28;19920;-77
2023/02/09 02:13:23;;;;;;;22.53;10.67;;;;;;;-7.71;100.00;102626.28;4946415;28;20043;-77
2023/02/09 02:16:03;;;;;;;24.00;10.67;;;;;;;-7.73;100.00;102623.59;4956283;28;20081;-77
2023/02/09 02:19:08;;;;;;;23.43;10.20;;;;;;;-7.69;100.00;102621.34;4970635;28;20494;-77
2023/02/09 02:22:10;;;;;;;18.67;9.00;;;;;;;-7.66;100.00;102619.97;4966527;28;20047;-77
2023/02/09 02:25:13;;;;;;;21.73;9.38;;;;;;;-7.63;100.00;102616.81;4945227;28;20457;-77
2023/02/09 02:28:12;;;;;;;18.80;8.67;;;;;;;-7.57;100.00;102626.03;4961953;28;20402;-77
2023/02/09 02:30:58;;;;;;;21.40;9.00;;;;;;;-7.54;100.00;102610.94;4962775;28;20505;-77
2023/02/09 02:33:44;;;;;;;20.60;9.70;;;;;;;-7.51;100.00;102613.81;4968380;28;20123;-77
2023/02/09 02:36:21;;;;;;;19.60;9.20;;;;;;;-7.52;100.00;102609.44;4961401;28;20045;-77
2023/02/09 02:38:58;;;;;;;21.60;10.50;;;;;;;-7.54;100.00;102605.81;4962745;28;20043;-77
2023/02/09 02:44:38;;;;;;;20.47;9.20;;;;;;;-7.67;100.00;102609.59;4965298;28;20035;-77
2023/02/09 02:47:07;;;;;;;23.00;10.73;;;;;;;-7.67;100.00;102609.59;4962730;28;20035;-77
2023/02/09 02:49:44;;;;;;;20.77;9.33;;;;;;;-7.69;100.00;102603.38;4966220;28;20062;-77
2023/02/09 02:52:10;;;;;;;22.83;10.27;;;;;;;-7.73;100.00;102607.28;4964778;28;20039;-77
2023/02/09 02:54:40;;;;;;;19.60;9.50;;;;;;;-7.74;100.00;102613.16;4963539;28;20035;-77
2023/02/09 02:57:15;;;;;;;23.33;9.87;;;;;;;-7.75;100.00;102614.84;4962986;28;20037;-77
2023/02/09 02:59:45;;;;;;;21.10;9.37;;;;;;;-7.76;100.00;102599.28;4967228;28;20421;-77
2023/02/09 03:02:14;;;;;;;21.20;10.07;;;;;;;-7.79;100.00;102599.88;4966019;28;20090;-77
2023/02/09 03:04:43;;;;;;;21.83;9.80;;;;;;;-7.80;100.00;102597.19;4962262;28;20554;-77
2023/02/09 03:07:09;;;;;;;22.93;9.97;;;;;;;-7.85;100.00;102601.84;4963912;28;20141;-77
2023/02/09 03:09:34;;;;;;;18.97;8.43;;;;;;;-7.87;100.00;102599.88;4965755;28;20035;-77
2023/02/09 03:12:29;;;;;;;18.30;9.37;;;;;;;-7.90;100.00;102603.03;4965280;28;20125;-77
2023/02/09 03:15:05;;;;;;;21.10;9.40;;;;;;;-7.91;100.00;102601.25;4962876;28;20042;-77
2023/02/09 03:17:56;;;;;;;19.03;8.80;;;;;;;-7.99;100.00;102591.84;4954290;28;20046;-77
2023/02/09 03:20:33;;;;;;;16.70;8.30;;;;;;;-7.99;100.00;102589.28;4965200;28;20039;-77
2023/02/09 03:23:01;;;;;;;22.53;9.83;;;;;;;-8.01;100.00;102593.38;4962140;28;20039;-77
2023/02/09 03:25:33;;;;;;;21.07;10.10;;;;;;;-8.01;100.00;102593.38;4975325;28;20046;-77
2023/02/09 03:28:15;;;;;;;20.67;10.23;;;;;;;-8.02;100.00;102592.44;4967637;28;20070;-77
2023/02/09 03:30:41;;;;;;;20.23;10.02;;;;;;;-8.07;100.00;102593.63;4964167;28;20066;-77
2023/02/09 03:33:23;;;;;;;17.13;8.17;;;;;;;-8.14;100.00;102588.66;4966345;28;20038;-77
2023/02/09 03:35:52;;;;;;;19.77;9.00;;;;;;;-8.22;100.00;102586.97;4962730;28;20561;-77
2023/02/09 03:38:17;;;;;;;20.50;8.53;;;;;;;-8.30;100.00;102586.19;4993369;23;20043;-70
2023/02/09 03:40:43;;;;;;;25.57;10.87;;;;;;;-8.33;100.00;102585.88;5006606;28;20041;-70
2023/02/09 03:43:10;;;;;;;23.70;10.57;;;;;;;-8.26;100.00;102582.28;5000922;28;20038;-70
2023/02/09 03:45:35;;;;;;;20.33;9.90;;;;;;;-8.27;100.00;102577.91;5002463;28;20050;-71
2023/02/09 03:48:01;;;;;;;20.73;9.47;;;;;;;-8.29;100.00;102571.72;5004390;28;20118;-71
2023/02/09 03:50:28;;;;;;;20.80;10.00;;;;;;;-8.27;100.00;102572.78;5004187;28;20038;-70
2023/02/09 03:52:53;;;;;;;19.13;8.53;;;;;;;-8.26;100.00;102575.50;5002495;28;20041;-71
2023/02/09 03:55:19;;;;;;;20.23;9.23;;;;;;;-8.30;100.00;102573.38;5002476;28;20087;-71
2023/02/09 03:57:44;;;;;;;21.80;9.10;;;;;;;-8.32;100.00;102569.75;5002840;28;20043;-71
2023/02/09 04:00:10;;;;;;;25.80;11.77;;;;;;;-8.30;100.00;102569.91;5002786;28;20062;-71
2023/02/09 04:02:40;;;;;;;23.47;10.40;;;;;;;-8.28;100.00;102570.97;4999665;28;20045;-71
2023/02/09 04:05:05;;;;;;;23.13;10.30;;;;;;;-8.28;100.00;102566.72;5002923;28;20031;-70
2023/02/09 04:07:30;;;;;;;22.23;9.47;;;;;;;-8.26;100.00;102574.59;4999016;28;20100;-71
2023/02/09 04:09:56;;;;;;;20.33;8.87;;;;;;;-8.27;100.00;102573.69;5005402;28;20467;-71
2023/02/09 04:12:21;;;;;;;20.97;8.73;;;;;;;-8.27;100.00;102575.34;5004335;28;20029;-70
2023/02/09 04:14:46;;;;;;;24.37;9.90;;;;;;;-8.37;100.00;102576.97;5001385;28;20042;-70
2023/02/09 04:17:12;;;;;;;24.17;9.67;;;;;;;-8.42;100.00;102570.50;5001293;28;20112;-71
2023/02/09 04:19:37;;;;;;;24.03;9.47;;;;;;;-8.44;100.00;102568.53;5002638;28;20038;-71
2023/02/09 04:22:02;;;;;;;19.33;8.40;;;;;;;-8.45;100.00;102569.28;5002869;28;20062;-71
2023/02/09 04:24:28;;;;;;;21.80;9.70;;;;;;;-8.42;100.00;102567.03;5004472;28;20042;-71
2023/02/09 04:26:53;;;;;;;22.63;9.57;;;;;;;-8.42;100.00;102559.34;5003695;28;20038;-71
2023/02/09 04:29:18;;;;;;;18.47;8.50;;;;;;;-8.37;100.00;102553.91;5006158;28;20105;-71
2023/02/09 04:31:44;;;;;;;20.93;8.97;;;;;;;-8.39;100.00;102546.84;5004891;28;20483;-71
2023/02/09 04:34:09;;;;;;;20.90;9.73;;;;;;;-8.36;100.00;102552.25;5004232;28;20040;-71
2023/02/09 04:36:34;;;;;;;23.17;10.40;;;;;;;-8.35;100.00;102550.63;5005495;28;20038;-72
2023/02/09 04:39:00;;;;;;;21.03;9.47;;;;;;;-8.35;100.00;102548.06;5005530;28;20049;-71
2023/02/09 04:41:25;;;;;;;17.83;8.20;;;;;;;-8.40;100.00;102547.63;5007486;28;20037;-71
2023/02/09 04:43:50;;;;;;;20.27;10.13;;;;;;;-8.48;100.00;102545.94;5004702;28;20038;-72
2023/02/09 04:46:17;;;;;;;19.90;7.93;;;;;;;-8.51;100.00;102546.53;5002688;28;20092;-71
2023/02/09 04:48:43;;;;;;;19.27;9.13;;;;;;;-8.53;100.00;102548.00;5009830;28;20554;-71
2023/02/09 04:51:08;;;;;;;16.83;7.60;;;;;;;-8.52;100.00;102544.69;5008414;28;20025;-71
2023/02/09 04:53:34;;;;;;;18.30;8.83;;;;;;;-8.48;100.00;102540.81;5002661;28;20097;-71
2023/02/09 04:55:59;;;;;;;21.53;9.63;;;;;;;-8.44;100.00;102532.66;5004395;28;20037;-72
2023/02/09 05:01:19;;;;;;;20.50;9.80;;;;;;;-8.37;100.00;102529.97;5005716;28;20076;-71
2023/02/09 05:03:44;;;;;;;19.63;9.40;;;;;;;-8.40;100.00;102535.72;5005207;28;20088;-71
2023/02/09 05:06:09;;;;;;;19.37;9.10;;;;;;;-8.37;100.00;102538.53;5001684;28;20102;-71
2023/02/09 05:08:35;;;;;;;20.57;9.27;;;;;;;-8.38;100.00;102529.06;5004733;28;20046;-72
2023/02/09 05:11:00;;;;;;;19.20;8.33;;;;;;;-8.39;100.00;102532.34;5006093;28;20053;-71
2023/02/09 05:13:26;;;;;;;24.63;10.13;;;;;;;-8.39;100.00;102532.34;5003019;28;20026;-71
2023/02/09 05:15:52;;;;;;;19.80;9.87;;;;;;;-8.43;100.00;102535.41;5009375;28;20664;-71
2023/02/09 05:18:18;;;;;;;19.23;8.60;;;;;;;-8.45;100.00;102531.78;5011609;28;20125;-71
2023/02/09 05:20:45;;;;;;;20.40;9.00;;;;;;;-8.46;100.00;102529.97;5011528;28;20038;-71
2023/02/09 05:23:11;;;;;;;22.07;9.13;;;;;;;-8.51;100.00;102526.03;5011830;28;20109;-71
2023/02/09 05:25:36;;;;;;;18.77;8.57;;;;;;;-8.52;100.00;102528.44;5011156;28;20750;-72
2023/02/09 05:28:03;;;;;;;19.27;9.47;;;;;;;-8.50;100.00;102532.94;5011570;28;20088;-71
2023/02/09 05:30:29;;;;;;;20.97;8.57;;;;;;;-8.53;100.00;102527.53;5010260;28;20110;-72
2023/02/09 05:32:55;;;;;;;22.00;9.00;;;;;;;-8.57;100.00;102530.50;5011127;28;20069;-71
2023/02/09 05:35:21;;;;;;;17.17;7.87;;;;;;;-8.62;100.00;102531.69;5011312;28;20037;-72
2023/02/09 05:37:46;;;;;;;22.90;9.70;;;;;;;-8.59;100.00;102524.34;5006681;28;20038;-72
2023/02/09 05:40:11;;;;;;;16.67;7.70;;;;;;;-8.57;100.00;102515.16;5004513;28;20044;-72
2023/02/09 05:42:37;;;;;;;21.33;8.77;;;;;;;-8.54;100.00;102512.94;5009126;28;20045;-71
2023/02/09 05:45:03;;;;;;;17.77;7.53;;;;;;;-8.52;100.00;102513.97;5009042;28;20034;-71
2023/02/09 05:47:28;;;;;;;24.20;10.03;;;;;;;-8.51;100.00;102520.00;5009231;28;20037;-71
2023/02/09 05:49:54;;;;;;;20.07;8.27;;;;;;;-8.56;100.00;102511.84;5004386;28;20041;-71
2023/02/09 05:52:19;;;;;;;18.43;8.50;;;;;;;-8.57;100.00;102509.13;5006694;28;20034;-71
2023/02/09 05:54:47;;;;;;;20.27;9.63;;;;;;;-8.56;100.00;102511.84;5002730;28;20046;-72
2023/02/09 05:57:12;;;;;;;24.93;9.70;;;;;;;-8.56;100.00;102521.19;5005420;28;20042;-71
2023/02/09 05:59:38;;;;;;;20.07;8.90;;;;;;;-8.65;100.00;102514.38;5008876;28;20057;-72
2023/02/09 06:02:03;;;;;;;75.13;31.87;;;;;;;-8.69;100.00;102519.03;5005941;28;20046;-71
2023/02/09 06:04:29;;;;;;;40.37;18.50;;;;;;;-8.72;100.00;102518.69;5006389;28;20029;-71
2023/02/09 06:06:55;;;;;;;30.87;13.07;;;;;;;-8.71;100.00;102521.44;5009825;28;20029;-72
2023/02/09 06:09:20;;;;;;;26.97;11.90;;;;;;;-8.71;100.00;102518.88;5001941;28;20042;-71
2023/02/09 06:11:46;;;;;;;22.90;10.47;;;;;;;-8.68;100.00;102514.06;5002177;28;20048;-71
2023/02/09 06:14:11;;;;;;;24.07;10.00;;;;;;;-8.67;100.00;102509.84;5000427;28;20042;-71
2023/02/09 06:16:37;;;;;;;18.90;8.20;;;;;;;-8.68;100.00;102516.63;5001696;28;20069;-71
2023/02/09 06:19:03;;;;;;;19.50;9.60;;;;;;;-8.71;100.00;102515.41;5011096;28;20033;-71
2023/02/09 06:21:28;;;;;;;17.93;8.93;;;;;;;-8.75;100.00;102515.81;5004221;28;20033;-71
2023/02/09 06:23:53;;;;;;;22.23;9.10;;;;;;;-8.75;100.00;102515.81;5000065;28;20104;-71
2023/02/09 06:26:19;;;;;;;22.27;9.57;;;;;;;-8.73;100.00;102516.91;5001601;28;20042;-71
2023/02/09 06:28:44;;;;;;;19.97;8.63;;;;;;;-8.74;100.00;102516.00;5002712;28;20038;-71
2023/02/09 06:31:10;;;;;;;19.50;8.70;;;;;;;-8.74;100.00;102515.09;5007868;28;20113;-71
2023/02/09 06:33:36;;;;;;;23.17;10.03;;;;;;;-8.74;100.00;102512.53;4999448;28;20080;-71
2023/02/09 06:36:04;;;;;;;18.30;9.10;;;;;;;-8.75;100.00;102513.25;5006332;28;20121;-72
2023/02/09 06:38:30;;;;;;;23.83;9.80;;;;;;;-8.72;100.00;102522.19;5005298;28;20037;-72
2023/02/09 06:40:56;;;;;;;20.10;9.23;;;;;;;-8.70;100.00;102525.78;5009295;28;20034;-71
2023/02/09 06:43:21;;;;;;;22.77;10.37;;;;;;;-8.71;100.00;102523.97;5003531;28;20463;-71
2023/02/09 06:45:47;;;;;;;20.67;9.87;;;;;;;-8.69;100.00;102519.03;5002711;28;20038;-72
2023/02/09 06:48:12;;;;;;;18.93;8.87;;;;;;;-8.65;100.00;102532.28;5005758;28;20043;-71
2023/02/09 06:50:38;;;;;;;22.07;10.73;;;;;;;-8.61;100.00;102533.53;5007522;28;20084;-71
2023/02/09 06:53:03;;;;;;;20.13;8.07;;;;;;;-8.56;100.00;102539.13;5010095;28;20041;-72
2023/02/09 06:55:29;;;;;;;24.37;9.93;;;;;;;-8.51;100.00;102543.97;5000378;28;20046;-71
2023/02/09 06:57:55;;;;;;;25.70;11.63;;;;;;;-8.40;100.00;102539.94;5003717;28;20117;-71
2023/02/09 07:00:20;;;;;;;26.30;12.13;;;;;;;-8.29;100.00;102541.88;5004021;28;20038;-71
2023/02/09 07:02:46;;;;;;;25.07;11.30;;;;;;;-8.21;100.00;102530.75;5000110;28;20026;-71
2023/02/09 07:05:13;;;;;;;22.50;10.40;;;;;;;-8.13;100.00;102531.53;5001936;28;20092;-71
2023/02/09 07:07:38;;;;;;;26.93;11.27;;;;;;;-8.07;100.00;102536.34;5000891;28;20066;-71
2023/02/09 07:10:06;;;;;;;25.33;11.13;;;;;;;-7.99;100.00;102536.41;5004394;28;20065;-71
2023/02/09 07:12:31;;;;;;;21.17;10.63;;;;;;;-7.95;100.00;102530.81;5009905;28;20108;-71
2023/02/09 07:14:57;;;;;;;23.73;10.67;;;;;;;-7.91;100.00;102542.28;5001087;28;20516;-71
2023/02/09 07:17:22;;;;;;;25.97;10.80;;;;;;;-7.83;100.00;102537.91;5004078;28;20069;-72
2023/02/09 07:19:47;;;;;;;27.30;12.33;;;;;;;-7.76;100.00;102518.16;5004484;28;20050;-71
2023/02/09 07:22:12;;;;;;;29.83;13.50;;;;;;;-7.66;100.00;102524.19;5002260;28;20072;-72
2023/02/09 07:24:38;;;;;;;26.80;11.70;;;;;;;-7.57;100.00;102520.88;5000615;28;20081;-72
2023/02/09 07:27:04;;;;;;;26.13;12.03;;;;;;;-7.53;100.00;102525.53;5005683;28;20065;-72
2023/02/09 07:29:31;;;;;;;26.80;11.40;;;;;;;-7.50;100.00;102513.03;5005446;28;20038;-72
2023/02/09 07:31:56;;;;;;;29.97;12.40;;;;;;;-7.41;100.00;102509.53;5002697;28;20034;-71
2023/02/09 07:34:22;;;;;;;21.90;11.30;;;;;;;-7.32;100.00;102505.31;5003312;28;20080;-71
2023/02/09 07:36:47;;;;;;;28.07;13.20;;;;;;;-7.19;100.00;102503.19;5001442;28;20045;-72
2023/02/09 07:39:13;;;;;;;24.00;12.27;;;;;;;-7.09;100.00;102508.44;5002719;28;20057;-71
2023/02/09 07:41:38;;;;;;;27.83;13.03;;;;;;;-6.95;100.00;102503.72;5003806;28;20034;-72
2023/02/09 07:44:03;;;;;;;27.50;12.10;;;;;;;-6.85;100.00;102502.19;4998264;28;20038;-71
2023/02/09 07:46:29;;;;;;;28.27;12.77;;;;;;;-6.70;100.00;102502.75;4999498;28;20053;-72
2023/02/09 07:48:56;;;;;;;22.13;11.40;;;;;;;-6.56;100.00;102496.31;5004102;28;20121;-72
2023/02/09 07:51:26;;;;;;;22.10;11.10;;;;;;;-6.34;100.00;102504.41;5005145;28;20025;-72
2023/02/09 07:53:52;;;;;;;21.67;10.90;;;;;;;-6.17;100.00;102501.69;5006300;28;20120;-71
2023/02/09 07:56:17;;;;;;;24.13;11.23;;;;;;;-5.98;100.00;102506.88;5004883;28;20036;-72
2023/02/09 07:58:43;;;;;;;20.13;9.57;;;;;;;-5.79;100.00;102504.31;5008617;28;20463;-71
2023/02/09 08:01:11;;;;;;;21.57;9.70;;;;;;;-5.60;100.00;102495.69;5009408;28;20484;-71
2023/02/09 08:03:38;;;;;;;24.73;11.33;;;;;;;-5.39;100.00;102497.59;5009774;28;20049;-71
2023/02/09 08:06:28;;;;;;;21.37;9.97;;;;;;;-5.18;100.00;102501.19;5009327;28;20053;-72
2023/02/09 08:08:53;;;;;;;22.27;11.13;;;;;;;-4.98;100.00;102492.63;5009782;28;20045;-71
2023/02/09 08:11:25;;;;;;;22.60;10.60;;;;;;;-4.80;100.00;102502.72;5006560;28;20034;-71
2023/02/09 08:13:53;;;;;;;18.50;8.98;;;;;;;-4.69;100.00;102497.75;5003911;28;20034;-72
2023/02/09 08:16:20;;;;;;;22.80;10.67;;;;;;;-4.53;100.00;102501.63;5004227;28;20091;-71
2023/02/09 08:18:55;;;;;;;23.57;11.37;;;;;;;-4.37;100.00;102501.28;5010024;28;20034;-72
2023/02/09 08:21:21;;;;;;;21.63;10.83;;;;;;;-4.25;100.00;102494.59;5007747;28;20030;-71
2023/02/09 08:23:52;;;;;;;21.10;10.90;;;;;;;-4.11;100.00;102491.50;5003514;28;20041;-72
2023/02/09 08:26:18;;;;;;;21.13;9.93;;;;;;;-4.01;100.00;102488.00;5008679;28;20425;-72
2023/02/09 08:28:44;;;;;;;23.37;11.43;;;;;;;-3.87;100.00;102492.66;5003955;28;20160;-71
2023/02/09 08:31:17;;;;;;;27.37;12.40;;;;;;;-3.70;100.00;102491.47;5006095;28;20034;-71
2023/02/09 08:33:44;;;;;;;22.00;12.00;;;;;;;-3.53;100.00;102500.63;5005221;28;20034;-72
2023/02/09 08:36:11;;;;;;;23.40;12.20;;;;;;;-3.36;100.00;102489.06;5006709;28;20161;-72
2023/02/09 08:38:37;;;;;;;32.93;15.47;;;;;;;-3.17;100.00;102489.78;5007444;28;20382;-72
2023/02/09 08:41:04;;;;;;;31.70;16.70;;;;;;;-2.89;99.23;102489.41;5006064;28;20034;-71
2023/02/09 08:43:30;;;;;;;30.27;14.30;;;;;;;-2.66;97.66;102491.22;5002331;28;20039;-71
2023/02/09 08:46:10;;;;;;;26.50;13.67;;;;;;;-2.48;95.17;102489.19;5004942;28;20030;-71
2023/02/09 08:48:38;;;;;;;26.37;14.57;;;;;;;-2.34;93.88;102490.25;5011507;28;20341;-71
2023/02/09 08:51:05;;;;;;;24.00;13.33;;;;;;;-2.24;93.59;102480.72;5009182;28;20026;-72
2023/02/09 08:53:31;;;;;;;29.37;14.83;;;;;;;-2.10;93.30;102480.88;5006264;28;20034;-71
2023/02/09 08:55:56;;;;;;;26.13;13.33;;;;;;;-2.02;92.51;102477.16;5004546;28;20036;-72
2023/02/09 08:58:23;;;;;;;28.63;15.60;;;;;;;-1.98;90.75;102474.03;5002454;28;20046;-72
2023/02/09 09:00:48;;;;;;;32.00;16.23;;;;;;;-1.85;91.31;102468.09;5005603;28;20038;-71
2023/02/09 09:03:13;;;;;;;29.63;16.37;;;;;;;-1.75;91.33;102478.38;5003863;28;20049;-71
2023/02/09 09:05:39;;;;;;;29.33;15.90;;;;;;;-1.68;91.16;102471.94;5004630;28;20439;-72
2023/02/09 09:08:04;;;;;;;27.73;14.23;;;;;;;-1.59;91.33;102467.47;5006221;28;20444;-71
2023/02/09 09:10:30;;;;;;;27.67;15.47;;;;;;;-1.50;90.59;102464.63;5009454;28;20382;-72
2023/02/09 09:12:56;;;;;;;28.10;16.80;;;;;;;-1.49;90.12;102467.34;5001571;28;20109;-71
2023/02/09 09:15:21;;;;;;;27.03;15.40;;;;;;;-1.45;89.71;102476.25;5001491;28;20425;-72
2023/02/09 09:17:46;;;;;;;27.53;14.40;;;;;;;-1.31;89.27;102470.41;5011031;28;20046;-72
2023/02/09 09:20:13;;;;;;;25.83;13.37;;;;;;;-1.16;89.40;102478.34;5005336;28;20030;-71
2023/02/09 09:22:38;;;;;;;29.63;16.27;;;;;;;-1.09;88.86;102484.91;5007468;28;20107;-73
2023/02/09 09:25:04;;;;;;;24.10;13.37;;;;;;;-1.02;87.80;102482.88;5001492;28;20038;-72
2023/02/09 09:27:31;;;;;;;27.00;14.73;;;;;;;-0.93;87.85;102477.44;5005085;28;20033;-72
2023/02/09 09:29:57;;;;;;;27.13;13.63;;;;;;;-0.92;85.83;102472.38;5008044;28;20034;-71
2023/02/09 09:32:23;;;;;;;26.10;13.80;;;;;;;-0.85;86.28;102480.56;5001162;28;20042;-71
2023/02/09 09:34:51;;;;;;;27.90;15.23;;;;;;;-0.80;85.60;102489.56;5003952;28;20045;-71
2023/02/09 09:37:16;;;;;;;26.00;13.67;;;;;;;-0.74;84.83;102477.03;5002237;28;20069;-72
2023/02/09 09:39:42;;;;;;;23.50;13.27;;;;;;;-0.68;83.99;102477.50;5029740;23;20076;-78
2023/02/09 09:42:21;;;;;;;28.23;14.00;;;;;;;-0.62;82.58;102477.91;5019469;28;20033;-78
2023/02/09 09:44:47;;;;;;;25.23;13.13;;;;;;;-0.58;83.22;102479.91;5030613;28;20041;-78
2023/02/09 09:47:21;;;;;;;28.77;15.07;;;;;;;-0.47;83.90;102481.59;5019390;28;20485;-78
2023/02/09 09:49:47;;;;;;;24.47;12.37;;;;;;;-0.46;80.99;102485.97;5015484;28;20049;-78
2023/02/09 09:52:21;;;;;;;27.57;15.17;;;;;;;-0.39;81.15;102479.53;5017150;28;20034;-79
2023/02/09 09:54:46;;;;;;;24.00;13.63;;;;;;;-0.31;80.76;102483.53;5016223;28;20467;-78
2023/02/09 09:57:26;;;;;;;25.93;13.57;;;;;;;-0.16;79.94;102483.66;5017820;28;20040;-78
2023/02/09 09:59:52;;;;;;;24.17;13.90;;;;;;;-0.09;80.33;102487.59;5015547;28;20057;-78
2023/02/09 10:02:44;;;;;;;25.57;13.23;;;;;;;0.01;80.32;102487.44;5005422;28;20088;-78
2023/02/09 10:05:18;;;;;;;12.07;8.87;;;;;;;0.09;79.80;102485.38;5011242;28;20050;-78
2023/02/09 10:07:50;;;;;;;12.97;8.97;;;;;;;0.17;79.31;102491.97;5015073;28;20038;-78
2023/02/09 10:10:27;;;;;;;14.15;9.15;;;;;;;0.17;78.13;102486.78;5005277;28;20476;-78
2023/02/09 10:12:54;;;;;;;13.93;9.87;;;;;;;0.14;77.15;102482.28;5013037;28;20038;-78
2023/02/09 10:15:32;;;;;;;12.67;8.60;;;;;;;0.22;78.13;102475.00;5019513;28;20114;-78
2023/02/09 10:17:58;;;;;;;10.23;7.57;;;;;;;0.29;76.58;102473.69;5018098;28;20072;-78
2023/02/09 10:20:45;;;;;;;11.27;8.13;;;;;;;0.33;76.61;102480.91;5013137;28;20030;-78
2023/02/09 10:23:24;;;;;;;10.97;8.53;;;;;;;0.41;76.41;102475.41;5013358;28;20107;-78
2023/02/09 10:25:58;;;;;;;14.07;8.63;;;;;;;0.44;75.75;102469.53;5015318;28;20124;-78
2023/02/09 10:28:38;;;;;;;11.23;8.23;;;;;;;0.51;75.63;102468.25;5019948;28;20034;-78
2023/02/09 10:31:10;;;;;;;12.20;8.33;;;;;;;0.62;75.82;102469.81;5011673;28;20049;-79
2023/02/09 10:33:41;;;;;;;10.77;8.13;;;;;;;0.63;74.96;102456.94;5017409;28;20041;-78
2023/02/09 10:36:22;;;;;;;10.82;8.63;;;;;;;0.75;75.03;102446.44;5014496;28;20033;-78
2023/02/09 10:38:48;;;;;;;11.63;8.47;;;;;;;0.82;75.38;102447.75;5015227;28;20089;-78
2023/02/09 10:41:15;;;;;;;11.37;7.93;;;;;;;0.85;74.24;102443.63;5011463;28;20057;-79
2023/02/09 10:43:40;;;;;;;11.13;7.00;;;;;;;0.92;74.79;102433.59;5012109;28;20489;-76
2023/02/09 10:46:17;;;;;;;11.02;8.18;;;;;;;1.03;74.16;102423.09;4998280;28;20046;-76
2023/02/09 10:48:45;;;;;;;11.30;8.23;;;;;;;1.02;74.45;102416.09;5005344;28;20386;-76
2023/02/09 10:51:27;;;;;;;10.73;7.90;;;;;;;1.16;74.54;102411.75;5003702;28;20041;-76
2023/02/09 10:54:06;;;;;;;10.20;7.40;;;;;;;1.25;72.54;102412.31;5000214;28;20038;-76
2023/02/09 10:56:40;;;;;;;12.55;8.25;;;;;;;1.35;72.97;102412.91;5001097;28;20448;-76
2023/02/09 10:59:17;;;;;;;8.65;6.80;;;;;;;1.47;73.05;102403.25;5002509;28;20077;-76
2023/02/09 11:01:58;;;;;;;10.52;7.72;;;;;;;1.53;72.54;102408.81;5001882;28;20042;-76
2023/02/09 11:04:28;;;;;;;10.07;7.05;;;;;;;1.66;72.14;102403.53;5000845;28;20606;-77
2023/02/09 11:06:59;;;;;;;9.20;6.93;;;;;;;1.84;72.84;102402.84;4999184;28;20121;-76
2023/02/09 11:09:43;;;;;;;10.05;8.15;;;;;;;1.91;70.12;102395.50;5005466;28;20037;-76
2023/02/09 11:12:09;;;;;;;9.98;6.15;;;;;;;1.91;69.27;102385.06;5008156;28;20041;-76
2023/02/09 11:14:35;;;;;;;9.05;6.38;;;;;;;2.04;70.58;102381.44;5007314;28;20045;-76
2023/02/09 11:17:38;;;;;;;9.10;7.05;;;;;;;2.16;69.80;102373.47;5004499;28;20034;-76
2023/02/09 11:20:34;;;;;;;9.43;6.95;;;;;;;2.19;67.21;102369.31;4939269;29;20582;-76
2023/02/09 11:23:31;;;;;;;8.85;6.68;;;;;;;2.27;66.77;102358.44;4942227;29;20087;-76
2023/02/09 11:26:06;;;;;;;8.88;7.15;;;;;;;2.32;67.21;102357.00;4995788;28;20061;-77